Avon, IN

10:02 AM EST on February 11, 2016 (GMT -0500)
Old Farm | | Change Station
CLOSE
Current Station
Personal Weather Station
Location: Danville, IN
Elevation: 0 ft
Nearby Weather Stations

Elev 0 ft 39.77 °N, 86.49 °W | Updated 10 seconds ago

Clear
Clear
15.4 °F
Feels Like 15 °F
N
0.0
Wind Variable Wind from NNE
Gusts 0.0 mph

Today
High -- | Low -- °F
--% Chance of Precip.
Yesterday
High -- | Low -- °F
Precip. -- in
Pressure 30.32 in
Visibility 10.0 miles
Clouds Few 25000 ft
Windchill 15 °F
Dew Point -15 °F
Humidity 24%
Rainfall 0.00 in
Snow Depth Not available.
7:44 AM 6:17 PM
Waxing Crescent, 12% visible
METAR KIND 111454Z 31003KT 10SM FEW250 M09/M15 A3028 RMK AO2 SLP267 T10891150 51022
Pressure 30.32 in
Visibility 10.0 miles
Clouds Few 25000 ft
Windchill 15 °F
Dew Point -15 °F
Humidity 24%
Rainfall 0.00 in
Snow Depth Not available.
7:44 AM 6:17 PM
Waxing Crescent, 12% visible
METAR KIND 111454Z 31003KT 10SM FEW250 M09/M15 A3028 RMK AO2 SLP267 T10891150 51022

10-Day Weather Forecast

Almanac

Astronomy

Feb. 11, 2016 Rise Set
Actual Time
Civil Twilight
Nautical Twilight
Astronomical Twilight
Moon
Length of Visible Light
Length of Day
Tomorrow will be .
, % of the Moon is Illuminated

Today's Extremes

State Highs State Lows

Community

WunderPhotos

Upload Photos

1,892,059 photos uploaded!

WunderBlog® & News

Nearby

Air Quality

  Air Quality AQ Index Pollutant
Not available.

Snow Depth

Station Depth Elevation

Earthquake Activity

City Distance Mag. Time & Date
Minimum magnitude displayed is 2.5.

Coastal Water Temperatures

Place Temperature

Stations

Nearby Weather Stations

Station Location Temp. Windchill Dew Point Humidity Wind Precip. Elev Updated Type
                   

Watches & Warnings

There are currently no watches in effect.